Time;durP1;ratioP1;P1;durP2;ratioP2;P2;SDS_P1;SDS_P2;PMS_P1;PMS_P2;Temp;Humidity;BMP_temperature;BMP_pressure;BME280_temperature;BME280_humidity;BME280_pressure;Samples;Min_cycle;Max_cycle;Signal;HPM_P1;HPM_P2
2022/11/09 00:01:51;;;;;;;78.25;40.38;;;;;;;2.06;94.38;99180.66;4349758;79;21052;-84
2022/11/09 00:14:46;;;;;;;68.65;35.10;;;;;;;1.87;95.66;99194.98;4403769;79;21034;-85
2022/11/09 00:20:47;;;;;;;79.70;41.00;;;;;;;2.02;96.79;99198.59;4391015;78;21014;-84
2022/11/09 00:27:11;;;;;;;80.03;41.40;;;;;;;2.12;96.31;99184.80;4434009;79;20973;-84
2022/11/09 00:33:20;;;;;;;79.10;40.38;;;;;;;1.94;95.22;99181.84;4436650;79;21002;-84
2022/11/09 00:40:03;;;;;;;71.20;38.38;;;;;;;1.76;95.55;99186.92;4397494;79;20994;-84
2022/11/09 00:46:05;;;;;;;70.62;37.05;;;;;;;1.87;97.06;99191.48;4404231;79;20997;-84
2022/11/09 00:52:06;;;;;;;79.53;42.25;;;;;;;1.85;96.79;99206.64;4409093;79;21840;-84
2022/11/09 00:58:24;;;;;;;93.07;48.98;;;;;;;1.76;95.51;99197.72;4435377;79;20962;-83
2022/11/09 01:04:25;;;;;;;89.45;47.20;;;;;;;1.53;95.24;99201.03;4365751;79;20958;-83
2022/11/09 01:10:29;;;;;;;94.28;48.83;;;;;;;1.38;95.58;99205.48;4313986;80;21032;-83
2022/11/09 01:16:30;;;;;;;106.43;49.93;;;;;;;1.27;95.60;99202.81;4397575;79;20966;-84
2022/11/09 01:22:31;;;;;;;104.05;49.70;;;;;;;1.22;95.93;99194.84;4493221;79;20985;-83
2022/11/09 01:28:33;;;;;;;61.35;33.23;;;;;;;1.16;95.93;99187.22;4388596;79;20991;-83
2022/11/09 01:34:45;;;;;;;93.55;44.75;;;;;;;1.24;97.47;99184.55;4485299;79;20949;-83
2022/11/09 01:40:46;;;;;;;93.20;46.55;;;;;;;1.14;96.08;99184.80;4385306;80;21475;-83
2022/11/09 01:47:08;;;;;;;75.30;39.63;;;;;;;0.99;96.31;99172.26;4389097;79;21011;-83
2022/11/09 01:53:18;;;;;;;92.12;47.40;;;;;;;0.93;96.39;99169.45;4401238;79;21034;-84
2022/11/09 01:59:27;;;;;;;82.57;41.50;;;;;;;0.99;96.91;99162.28;4402231;79;21037;-84
2022/11/09 02:05:33;;;;;;;126.67;51.77;;;;;;;0.87;96.28;99159.91;4336865;79;21048;-84
2022/11/09 02:11:36;;;;;;;94.60;45.92;;;;;;;0.81;96.54;99158.44;4317188;81;20983;-84
2022/11/09 02:17:40;;;;;;;123.82;51.73;;;;;;;0.66;97.19;99161.52;4332852;81;21011;-84
2022/11/09 02:23:42;;;;;;;112.37;51.40;;;;;;;0.57;96.82;99167.37;4293566;81;21055;-84
2022/11/09 02:29:47;;;;;;;98.60;47.25;;;;;;;0.59;97.71;99161.94;4320723;80;20975;-83
2022/11/09 02:35:49;;;;;;;109.50;52.58;;;;;;;0.57;97.20;99164.13;4315648;80;21003;-84
2022/11/09 02:42:23;;;;;;;102.65;51.92;;;;;;;0.60;97.33;99164.06;4322185;81;21010;-84
2022/11/09 02:48:25;;;;;;;97.20;48.98;;;;;;;0.53;97.37;99157.78;4295445;81;20995;-84
2022/11/09 02:54:27;;;;;;;95.67;47.03;;;;;;;0.38;96.95;99147.34;4310531;80;21019;-84
2022/11/09 03:00:29;;;;;;;86.25;46.68;;;;;;;0.47;98.48;99150.11;4318825;81;21590;-85
2022/11/09 03:06:33;;;;;;;104.47;50.12;;;;;;;0.55;98.00;99146.70;4366731;79;21026;-85
2022/11/09 03:12:37;;;;;;;92.47;47.20;;;;;;;0.45;97.34;99146.92;4387679;79;21062;-84
2022/11/09 03:18:40;;;;;;;87.82;45.00;;;;;;;0.42;97.90;99147.53;4384613;79;21023;-85
2022/11/09 03:24:42;;;;;;;92.90;48.23;;;;;;;0.26;98.29;99125.55;4392105;79;21037;-84
2022/11/09 03:30:44;;;;;;;85.05;43.17;;;;;;;0.41;98.09;99145.95;4386011;79;21622;-85
2022/11/09 03:36:45;;;;;;;83.87;44.70;;;;;;;0.41;98.18;99146.73;4398010;79;21013;-84
2022/11/09 03:42:47;;;;;;;98.45;47.53;;;;;;;0.25;97.55;99148.16;4392472;79;21073;-85
2022/11/09 03:48:49;;;;;;;70.00;39.08;;;;;;;0.21;97.93;99136.97;4394530;79;21013;-85
2022/11/09 03:55:04;;;;;;;89.13;44.93;;;;;;;0.16;98.58;99135.19;4395304;79;21006;-84
2022/11/09 04:01:06;;;;;;;110.42;48.38;;;;;;;0.08;98.22;99142.63;4384384;79;20960;-84
2022/11/09 04:07:10;;;;;;;91.57;43.90;;;;;;;0.06;98.81;99152.12;4395508;79;20974;-85
2022/11/09 04:13:22;;;;;;;97.40;45.28;;;;;;;0.13;99.60;99147.11;4383721;79;21444;-85
2022/11/09 04:19:24;;;;;;;101.00;48.35;;;;;;;0.36;100.00;99154.14;4441615;79;21024;-85
2022/11/09 04:25:26;;;;;;;87.00;41.33;;;;;;;0.25;98.80;99148.16;4444055;79;20986;-85
2022/11/09 04:31:28;;;;;;;85.03;41.50;;;;;;;0.11;98.30;99136.64;4383319;79;20951;-85
2022/11/09 04:37:29;;;;;;;90.80;44.05;;;;;;;0.03;98.58;99141.42;4391952;79;21028;-85
2022/11/09 04:43:31;;;;;;;90.35;43.85;;;;;;;-0.04;98.68;99142.37;4398118;79;21535;-84
2022/11/09 04:49:32;;;;;;;82.20;40.75;;;;;;;-0.15;99.28;99122.16;4465400;79;21457;-84
2022/11/09 04:55:34;;;;;;;71.77;38.70;;;;;;;-0.15;99.28;99122.16;4370640;79;20982;-84
2022/11/09 05:01:36;;;;;;;88.62;44.42;;;;;;;-0.05;98.81;99144.25;4415556;79;21008;-84
2022/11/09 05:07:37;;;;;;;79.10;40.45;;;;;;;-0.11;99.04;99123.16;4347271;79;21026;-84
2022/11/09 05:13:39;;;;;;;75.28;39.25;;;;;;;-0.16;99.13;99112.50;4298001;81;21059;-85
2022/11/09 05:19:40;;;;;;;67.75;34.13;;;;;;;-0.18;99.46;99116.03;4313804;80;22034;-84
2022/11/09 05:25:42;;;;;;;65.37;34.65;;;;;;;-0.05;100.00;99121.95;4299898;81;21611;-84
2022/11/09 05:31:46;;;;;;;75.85;40.65;;;;;;;-0.02;99.81;99125.37;4324235;80;21015;-84
2022/11/09 05:37:48;;;;;;;74.62;39.42;;;;;;;-0.02;99.81;99125.37;4321101;81;20963;-83
2022/11/09 05:43:49;;;;;;;70.97;35.30;;;;;;;-0.05;99.95;99124.64;4319147;80;20996;-83
2022/11/09 05:49:51;;;;;;;80.72;39.88;;;;;;;-0.09;100.00;99114.22;4320080;81;21027;-83
2022/11/09 05:55:54;;;;;;;82.62;40.12;;;;;;;-0.09;100.00;99114.22;4338940;80;21035;-83
2022/11/09 06:01:55;;;;;;;78.45;40.88;;;;;;;0.12;100.00;99137.45;4317360;79;20988;-83
2022/11/09 06:08:04;;;;;;;69.17;33.67;;;;;;;0.08;100.00;99148.02;4340582;80;21039;-83
2022/11/09 06:14:06;;;;;;;67.25;35.05;;;;;;;0.22;100.00;99153.39;4312107;80;21070;-83
2022/11/09 06:20:08;;;;;;;73.47;36.55;;;;;;;0.14;100.00;99154.91;4342964;81;21071;-83
2022/11/09 06:26:11;;;;;;;77.37;37.30;;;;;;;0.22;100.00;99147.43;4321297;81;20928;-84
2022/11/09 06:32:12;;;;;;;73.97;38.55;;;;;;;0.33;100.00;99152.83;4306400;81;20991;-83
2022/11/09 06:38:14;;;;;;;70.25;37.78;;;;;;;0.48;100.00;99155.73;4264141;80;20999;-83
2022/11/09 06:44:16;;;;;;;72.32;36.53;;;;;;;0.57;100.00;99156.59;4322630;80;20999;-83
2022/11/09 06:50:17;;;;;;;74.12;36.30;;;;;;;0.69;100.00;99160.91;4315673;80;21436;-83
2022/11/09 06:56:19;;;;;;;71.75;36.65;;;;;;;0.80;100.00;99148.20;4316436;81;20980;-84
2022/11/09 07:02:21;;;;;;;76.37;39.27;;;;;;;0.93;100.00;99161.36;4319583;80;21042;-83
2022/11/09 07:08:22;;;;;;;83.80;45.33;;;;;;;1.09;100.00;99159.34;4274142;81;21582;-83
2022/11/09 07:14:24;;;;;;;108.97;54.98;;;;;;;1.35;100.00;99147.31;4241423;81;21068;-83
2022/11/09 07:20:27;;;;;;;106.37;52.65;;;;;;;1.72;100.00;99156.28;4240923;81;21958;-83
2022/11/09 07:26:28;;;;;;;90.75;48.92;;;;;;;2.17;100.00;99159.00;4232508;81;21649;-83
2022/11/09 07:32:37;;;;;;;97.20;51.92;;;;;;;2.79;100.00;99152.72;4249376;81;21495;-83
2022/11/09 07:38:38;;;;;;;76.72;45.90;;;;;;;3.40;100.00;99147.42;4253664;80;20991;-84
2022/11/09 07:44:40;;;;;;;100.67;56.23;;;;;;;4.12;100.00;99146.66;4248280;81;21043;-84
2022/11/09 07:50:41;;;;;;;89.85;47.08;;;;;;;4.62;100.00;99150.89;4257354;81;20987;-84
2022/11/09 07:56:43;;;;;;;64.95;37.17;;;;;;;5.35;100.00;99145.15;4240689;81;21054;-85
2022/11/09 08:02:50;;;;;;;70.52;42.35;;;;;;;5.93;100.00;99135.82;4249380;81;21011;-86
2022/11/09 08:08:53;;;;;;;71.25;40.15;;;;;;;6.70;100.00;99137.36;4296373;80;20987;-86
2022/11/09 08:14:55;;;;;;;70.30;40.12;;;;;;;7.36;100.00;99127.51;4295909;83;21031;-86
2022/11/09 08:20:56;;;;;;;72.80;40.25;;;;;;;7.94;100.00;99127.39;4300948;81;21511;-86
2022/11/09 08:26:57;;;;;;;63.90;37.05;;;;;;;8.54;100.00;99121.94;4315275;79;21531;-86
2022/11/09 08:33:02;;;;;;;66.72;38.23;;;;;;;8.99;100.00;99115.84;4293145;81;21055;-85
2022/11/09 08:39:06;;;;;;;127.47;79.35;;;;;;;9.73;100.00;99108.92;4278397;81;20994;-84
2022/11/09 08:45:10;;;;;;;71.00;43.68;;;;;;;10.12;98.76;99108.97;4295415;81;20992;-84
2022/11/09 08:51:16;;;;;;;56.15;33.90;;;;;;;10.29;98.64;99109.83;4370902;81;20976;-84
2022/11/09 08:57:24;;;;;;;49.98;32.00;;;;;;;10.52;97.92;99107.79;4288000;81;21043;-84
2022/11/09 09:03:49;;;;;;;53.70;31.60;;;;;;;10.83;98.53;99102.72;4300746;81;21039;-84
2022/11/09 09:09:54;;;;;;;46.02;28.45;;;;;;;11.17;96.29;99098.55;4329596;81;20968;-85
2022/11/09 09:16:19;;;;;;;41.40;25.23;;;;;;;11.40;96.71;99100.56;4312170;80;21067;-85
2022/11/09 09:29:07;;;;;;;38.93;22.53;;;;;;;12.31;96.79;99092.47;4323592;80;21031;-85
2022/11/09 10:31:48;;;;;;;39.03;23.22;;;;;;;13.33;88.10;99065.38;4306184;81;21098;-85
2022/11/09 10:38:21;;;;;;;38.35;23.90;;;;;;;13.37;87.72;99066.18;4319604;80;21001;-85
2022/11/09 10:44:48;;;;;;;34.23;21.85;;;;;;;13.24;87.75;99064.97;4308680;80;21034;-85
2022/11/09 10:58:43;;;;;;;34.15;22.20;;;;;;;13.39;87.74;99063.80;4091928;86;21152;-85
2022/11/09 11:05:31;;;;;;;36.23;21.93;;;;;;;13.48;87.09;99070.30;4017908;87;21063;-85
2022/11/09 11:12:21;;;;;;;34.23;20.95;;;;;;;13.64;87.16;99056.34;4098455;84;21040;-85
2022/11/09 11:19:16;;;;;;;30.97;19.92;;;;;;;13.84;86.08;99053.38;4126225;83;21071;-85
2022/11/09 11:26:06;;;;;;;31.10;19.45;;;;;;;13.94;85.84;99045.72;4044079;84;21157;-86
2022/11/09 11:32:29;;;;;;;28.10;17.05;;;;;;;14.03;84.82;99050.22;4316872;80;20975;-86
2022/11/09 11:39:52;;;;;;;23.83;16.52;;;;;;;14.13;84.83;99040.36;4277969;81;21049;-85
2022/11/09 11:47:01;;;;;;;26.75;16.52;;;;;;;14.12;83.73;99036.84;4308564;81;20999;-85
2022/11/09 11:53:55;;;;;;;25.97;17.35;;;;;;;14.08;83.79;99033.30;4285565;81;21062;-84
2022/11/09 12:00:48;;;;;;;21.42;14.60;;;;;;;14.06;83.30;99037.64;4275155;81;20987;-85
2022/11/09 12:07:38;;;;;;;24.35;13.62;;;;;;;13.94;82.50;99036.66;4108320;82;21066;-86
2022/11/09 12:21:40;;;;;;;15.00;10.10;;;;;;;13.86;81.53;99031.77;4252054;82;21003;-85
2022/11/09 12:28:40;;;;;;;16.30;10.50;;;;;;;13.87;80.45;99029.81;4248028;82;20983;-85
2022/11/09 12:35:40;;;;;;;13.83;9.10;;;;;;;13.88;80.60;99031.38;4260133;80;21650;-86
2022/11/09 12:42:25;;;;;;;15.00;9.95;;;;;;;13.85;79.98;99030.21;4255994;81;21378;-86
2022/11/09 12:48:56;;;;;;;18.25;10.28;;;;;;;13.99;79.57;99030.77;4252365;81;21111;-86
2022/11/09 13:03:01;;;;;;;17.62;10.15;;;;;;;13.81;79.09;99035.52;4311753;81;21006;-86
2022/11/09 13:09:24;;;;;;;14.25;8.93;;;;;;;13.74;78.73;99034.94;4192232;83;21046;-86
2022/11/09 13:16:35;;;;;;;13.70;8.93;;;;;;;13.73;77.98;99051.84;4224619;82;21078;-86
2022/11/09 13:23:39;;;;;;;17.50;9.45;;;;;;;13.69;77.75;99046.91;4088748;85;21146;-85
2022/11/09 13:30:27;;;;;;;14.83;9.53;;;;;;;13.65;77.50;99049.69;3880553;89;21081;-85
2022/11/09 13:36:52;;;;;;;20.70;10.13;;;;;;;13.64;77.61;99050.84;3876495;89;21109;-85
2022/11/09 13:43:19;;;;;;;;;;;;;;;13.56;77.26;99047.89;3879132;87;21120;-86
2022/11/09 13:49:48;;;;;;;14.28;8.93;;;;;;;13.50;76.92;99043.20;3948570;86;20474;-87
2022/11/09 13:56:38;;;;;;;16.40;8.80;;;;;;;13.45;77.29;99037.48;4157511;80;21554;-86
2022/11/09 14:03:06;;;;;;;15.27;10.17;;;;;;;13.38;77.11;99037.50;4247955;81;21042;-86
2022/11/09 14:10:28;;;;;;;46.00;20.15;;;;;;;13.33;77.03;99033.76;4256003;79;21477;-85
2022/11/09 14:17:22;;;;;;;27.95;16.30;;;;;;;13.26;76.94;99032.39;4265366;81;21023;-85
2022/11/09 14:23:44;;;;;;;25.10;13.93;;;;;;;13.13;77.02;99035.89;4284935;82;20982;-85
2022/11/09 14:30:22;;;;;;;25.00;13.62;;;;;;;12.83;77.36;99032.07;4325460;81;21003;-85
2022/11/09 14:36:44;;;;;;;28.23;11.78;;;;;;;12.62;77.68;99033.39;4292969;80;21155;-85
2022/11/09 14:50:49;;;;;;;42.95;18.30;;;;;;;12.11;78.57;99034.13;4340244;81;20970;-86
2022/11/09 14:57:29;;;;;;;28.92;13.35;;;;;;;11.78;79.23;99026.88;4320262;81;21051;-86
2022/11/09 15:04:15;;;;;;;25.30;13.15;;;;;;;11.42;79.60;99044.19;4336010;81;20995;-86
2022/11/09 15:10:51;;;;;;;22.48;13.05;;;;;;;11.24;80.13;99042.47;4275390;81;20986;-85
2022/11/09 15:18:02;;;;;;;30.43;14.23;;;;;;;10.97;80.60;99032.23;4256331;80;21012;-85
2022/11/09 15:24:27;;;;;;;22.00;11.95;;;;;;;10.65;80.94;99037.36;4315797;81;21927;-85
2022/11/09 15:31:04;;;;;;;22.80;13.18;;;;;;;10.41;81.57;99039.81;4380788;81;20945;-85
2022/11/09 15:37:54;;;;;;;28.40;14.23;;;;;;;10.08;81.64;99033.73;4287471;81;21038;-86
2022/11/09 15:44:16;;;;;;;33.90;14.55;;;;;;;9.75;82.21;99032.24;4309586;81;21014;-85
2022/11/09 15:50:39;;;;;;;30.68;17.17;;;;;;;9.44;82.56;99041.52;4284983;81;21011;-86
2022/11/09 15:56:59;;;;;;;34.70;15.90;;;;;;;9.20;83.29;99043.84;4286204;80;21515;-86
2022/11/09 16:03:19;;;;;;;43.75;17.50;;;;;;;8.99;83.76;99044.84;4289090;81;21287;-85
2022/11/09 16:09:44;;;;;;;34.73;16.05;;;;;;;8.74;83.97;99050.42;4303331;80;20988;-86
2022/11/09 16:16:07;;;;;;;46.28;16.75;;;;;;;8.59;84.63;99050.72;4303571;81;20964;-86
2022/11/09 16:29:36;;;;;;;31.73;15.80;;;;;;;8.27;85.42;99049.27;4220778;82;21045;-84
2022/11/09 16:36:00;;;;;;;33.88;15.15;;;;;;;8.09;85.95;99052.17;4345253;82;20998;-85
2022/11/09 16:49:56;;;;;;;34.25;17.55;;;;;;;7.58;86.63;99058.80;4307155;81;21001;-85
2022/11/09 16:56:16;;;;;;;45.40;22.55;;;;;;;7.46;87.05;99065.69;4284267;81;21011;-85
2022/11/09 17:02:35;;;;;;;52.62;25.43;;;;;;;7.18;86.93;99067.14;4164609;81;9999487;-85
2022/11/09 17:08:56;;;;;;;61.77;24.65;;;;;;;7.01;87.72;99072.13;4294542;81;21110;-85
2022/11/09 17:15:16;;;;;;;49.48;24.77;;;;;;;6.94;88.25;99076.03;4292438;81;21018;-85
2022/11/09 17:21:36;;;;;;;59.20;26.45;;;;;;;6.63;87.81;99081.38;4320973;81;21030;-85
2022/11/09 17:27:56;;;;;;;143.00;65.78;;;;;;;6.46;88.56;99090.63;4292954;81;21615;-86
2022/11/09 17:34:16;;;;;;;101.18;48.63;;;;;;;6.35;89.14;99091.70;4324452;81;20990;-85
2022/11/09 17:40:37;;;;;;;92.50;44.42;;;;;;;6.18;89.18;99093.33;4222228;81;20994;-84
2022/11/09 17:46:56;;;;;;;83.12;40.63;;;;;;;6.10;89.95;99094.81;4281056;82;21004;-86
2022/11/09 17:53:15;;;;;;;118.17;53.50;;;;;;;6.06;90.43;99102.84;4388156;81;20972;-85
2022/11/09 17:59:36;;;;;;;135.90;55.75;;;;;;;5.94;90.22;99102.07;4295726;81;21010;-86
2022/11/09 18:06:14;;;;;;;119.77;55.45;;;;;;;5.85;90.56;99100.85;4212586;84;22014;-85
2022/11/09 18:13:20;;;;;;;97.40;43.48;;;;;;;5.74;90.77;99100.25;4282570;81;21002;-85
2022/11/09 18:19:39;;;;;;;94.05;48.00;;;;;;;5.53;90.68;99109.86;4299661;80;21471;-85
2022/11/09 18:26:01;;;;;;;85.32;42.35;;;;;;;5.36;91.25;99111.98;4299800;80;21516;-85
2022/11/09 18:32:21;;;;;;;95.05;48.28;;;;;;;5.28;91.30;99111.55;4353365;82;21041;-85
2022/11/09 18:38:42;;;;;;;116.77;57.55;;;;;;;5.11;91.42;99121.22;4349594;82;20971;-85
2022/11/09 18:45:09;;;;;;;112.70;56.92;;;;;;;4.97;91.87;99110.67;4353931;82;21025;-85
2022/11/09 18:51:29;;;;;;;103.80;53.00;;;;;;;4.89;92.44;99118.92;4307993;80;21050;-85
2022/11/09 18:57:49;;;;;;;108.32;54.83;;;;;;;4.62;92.02;99118.91;4247656;80;21006;-85
2022/11/09 19:04:15;;;;;;;132.03;61.75;;;;;;;4.54;92.72;99113.80;4334041;80;21005;-84
2022/11/09 19:10:36;;;;;;;126.18;66.10;;;;;;;4.48;93.00;99103.48;4305177;80;20998;-84
2022/11/09 19:17:04;;;;;;;105.15;51.05;;;;;;;4.41;93.40;99110.02;4331217;80;20994;-85
2022/11/09 19:30:29;;;;;;;98.30;47.30;;;;;;;4.28;94.28;99124.61;4270005;83;20959;-85
2022/11/09 19:37:05;;;;;;;88.60;44.83;;;;;;;4.35;94.07;99113.47;4320760;81;21069;-85
2022/11/09 19:43:25;;;;;;;83.40;42.50;;;;;;;4.17;93.77;99113.93;4293006;81;22129;-86
2022/11/09 19:49:44;;;;;;;85.75;43.90;;;;;;;4.08;94.00;99110.50;4303809;81;21025;-86
2022/11/09 19:56:08;;;;;;;76.97;40.67;;;;;;;4.03;94.35;99105.27;4287513;81;21026;-85
2022/11/09 20:02:28;;;;;;;105.65;51.00;;;;;;;4.04;94.81;99113.06;4285766;81;21147;-85
2022/11/09 20:09:35;;;;;;;77.75;39.90;;;;;;;3.89;94.10;99116.91;4332982;80;21026;-85
2022/11/09 20:16:04;;;;;;;124.45;57.60;;;;;;;3.82;95.21;99119.36;4212808;84;21578;-85
2022/11/09 20:22:25;;;;;;;82.00;42.35;;;;;;;3.70;94.57;99113.83;4280943;81;21046;-85
2022/11/09 20:28:47;;;;;;;97.82;50.08;;;;;;;3.56;94.55;99107.84;4286253;80;21026;-85
2022/11/09 20:35:09;;;;;;;85.87;42.98;;;;;;;3.40;94.60;99111.66;4291345;81;21585;-85
2022/11/09 20:41:30;;;;;;;97.10;47.00;;;;;;;3.38;95.75;99114.47;4292973;81;21070;-84
2022/11/09 20:47:49;;;;;;;91.60;43.48;;;;;;;3.34;95.78;99118.92;4293713;81;21066;-85
2022/11/09 20:54:09;;;;;;;116.25;61.15;;;;;;;3.42;95.85;99124.87;4293530;81;21003;-85
2022/11/09 21:00:31;;;;;;;113.42;56.55;;;;;;;3.30;95.31;99126.92;4289971;81;21054;-84
2022/11/09 21:06:51;;;;;;;105.97;55.17;;;;;;;3.14;95.61;99127.20;4293001;81;21473;-85
2022/11/09 21:13:11;;;;;;;106.05;55.30;;;;;;;3.07;95.84;99124.98;4292963;81;21653;-85
2022/11/09 21:19:31;;;;;;;91.05;47.90;;;;;;;3.01;95.60;99130.34;4279764;81;21015;-84
2022/11/09 21:32:31;;;;;;;86.20;47.40;;;;;;;2.85;96.25;99135.23;4247368;81;21006;-84
2022/11/09 21:38:51;;;;;;;109.80;56.83;;;;;;;2.86;96.58;99141.67;4244768;81;21080;-85
2022/11/09 21:45:11;;;;;;;114.08;57.05;;;;;;;2.84;96.63;99148.50;4241563;82;20992;-85
2022/11/09 21:51:33;;;;;;;101.00;51.20;;;;;;;2.80;96.66;99148.91;4302015;82;21932;-85
2022/11/09 21:58:14;;;;;;;114.62;62.35;;;;;;;2.65;96.19;99162.91;4243501;81;21050;-85
2022/11/09 22:04:33;;;;;;;103.38;55.35;;;;;;;2.58;96.74;99162.60;4180110;82;21964;-84
2022/11/09 22:11:19;;;;;;;104.85;55.75;;;;;;;2.58;97.29;99166.11;4246870;81;21055;-84
2022/11/09 22:17:39;;;;;;;119.42;60.70;;;;;;;2.52;97.20;99166.00;4247805;81;21480;-83
2022/11/09 22:24:00;;;;;;;124.82;62.50;;;;;;;2.58;97.48;99163.95;4258070;81;21086;-85
2022/11/09 22:30:23;;;;;;;114.88;60.65;;;;;;;2.43;96.78;99174.67;4254777;81;21146;-84
2022/11/09 22:36:43;;;;;;;91.55;48.20;;;;;;;2.38;97.20;99173.47;4244166;81;21022;-85
2022/11/09 22:43:02;;;;;;;108.95;57.53;;;;;;;2.40;98.00;99169.90;4249540;81;21027;-85
2022/11/09 22:49:22;;;;;;;83.15;46.58;;;;;;;2.37;97.12;99173.23;4245700;81;21060;-84
2022/11/09 22:55:42;;;;;;;77.15;43.75;;;;;;;2.37;98.09;99181.34;4256432;80;21031;-84
2022/11/09 23:02:02;;;;;;;91.75;49.45;;;;;;;2.43;98.47;99186.83;4249056;81;21063;-85
2022/11/09 23:08:23;;;;;;;105.43;54.73;;;;;;;2.42;98.25;99190.66;4242371;81;21019;-84
2022/11/09 23:21:34;;;;;;;89.17;45.00;;;;;;;2.32;97.93;99186.12;4245387;81;21107;-84
2022/11/09 23:27:55;;;;;;;125.60;62.25;;;;;;;2.34;98.41;99186.03;4251039;81;20999;-85
2022/11/09 23:34:15;;;;;;;112.05;57.98;;;;;;;2.18;97.46;99192.98;4252853;81;21130;-84
2022/11/09 23:40:35;;;;;;;119.85;61.33;;;;;;;2.18;98.46;99208.39;4246901;81;21555;-85
2022/11/09 23:46:55;;;;;;;117.80;58.48;;;;;;;2.19;98.29;99216.75;4249674;81;21094;-85
2022/11/09 23:53:17;;;;;;;107.40;58.40;;;;;;;2.11;98.32;99230.48;4260391;81;22260;-85
2022/11/09 23:59:41;;;;;;;102.93;52.30;;;;;;;2.15;98.86;99221.98;4254979;81;21019;-85
